createdAt,value
2023-05-05T00:02:40.748Z,9.3
2023-05-05T00:07:46.729Z,9.3
2023-05-05T00:12:52.802Z,9.2
2023-05-05T00:17:58.831Z,9.2
2023-05-05T00:23:04.885Z,9.2
2023-05-05T00:28:10.937Z,9.2
2023-05-05T00:38:24.979Z,9.3
2023-05-05T00:43:31.013Z,9.2
2023-05-05T00:48:37.073Z,9.2
2023-05-05T00:53:43.124Z,9.2
2023-05-05T00:58:49.194Z,9.1
2023-05-05T01:03:55.323Z,9.1
2023-05-05T01:09:01.317Z,9
2023-05-05T01:14:07.424Z,9
2023-05-05T01:19:13.727Z,8.9
2023-05-05T01:24:19.531Z,8.9
2023-05-05T01:29:25.587Z,8.9
2023-05-05T01:34:31.653Z,8.8
2023-05-05T01:39:37.726Z,8.8
2023-05-05T01:44:43.805Z,8.7
2023-05-05T01:49:49.828Z,8.7
2023-05-05T01:54:55.908Z,8.7
2023-05-05T02:00:01.978Z,8.8
2023-05-05T02:05:08.039Z,8.6
2023-05-05T02:10:14.155Z,8.8
2023-05-05T02:15:20.168Z,8.7
2023-05-05T02:20:26.262Z,8.7
2023-05-05T02:25:32.341Z,8.6
2023-05-05T02:30:38.368Z,8.6
2023-05-05T02:35:44.456Z,8.6
2023-05-05T02:40:50.491Z,8.5
2023-05-05T02:45:56.568Z,8.5
2023-05-05T02:51:02.644Z,8.5
2023-05-05T02:56:08.681Z,8.4
2023-05-05T03:01:14.780Z,8.4
2023-05-05T03:06:20.829Z,8.4
2023-05-05T03:11:28.766Z,8.3
2023-05-05T03:21:44.654Z,8.3
2023-05-05T03:26:52.574Z,8.2
2023-05-05T03:32:00.571Z,8.2
2023-05-05T03:37:08.461Z,8.3
2023-05-05T03:42:16.475Z,8.3
2023-05-05T03:47:24.333Z,8.2
2023-05-05T03:52:32.326Z,8.2
2023-05-05T03:57:40.219Z,8.2
2023-05-05T04:02:48.227Z,8.1
2023-05-05T04:07:56.074Z,8.1
2023-05-05T04:13:02.226Z,8.1
2023-05-05T04:18:08.266Z,8.1
2023-05-05T04:23:14.291Z,8.1
2023-05-05T04:28:21.789Z,8.1
2023-05-05T04:33:26.412Z,8.1
2023-05-05T04:38:32.560Z,8.1
2023-05-05T04:43:38.570Z,8
2023-05-05T04:48:44.614Z,8
2023-05-05T04:53:50.678Z,8
2023-05-05T04:58:56.753Z,8
2023-05-05T05:04:02.930Z,8
2023-05-05T05:09:08.880Z,7.9
2023-05-05T05:14:14.932Z,7.9
2023-05-05T05:19:20.992Z,7.9
2023-05-05T05:24:27.061Z,8
2023-05-05T05:29:33.117Z,8
2023-05-05T05:34:39.268Z,8.1
2023-05-05T05:39:45.274Z,8.1
2023-05-05T05:44:51.303Z,8.1
2023-05-05T05:49:57.392Z,8.1
2023-05-05T05:55:03.468Z,8.2
2023-05-05T06:00:09.863Z,8.1
2023-05-05T06:05:15.554Z,8.1
2023-05-05T06:10:27.881Z,8.3
2023-05-05T06:15:27.730Z,8.3
2023-05-05T06:20:33.777Z,8.3
2023-05-05T06:25:39.852Z,8.4
2023-05-05T06:35:53.824Z,8.5
2023-05-05T06:40:59.914Z,8.8
2023-05-05T06:46:05.963Z,8.8
2023-05-05T06:51:12.042Z,8.7
2023-05-05T06:56:18.104Z,8.7
2023-05-05T07:01:24.249Z,8.8
2023-05-05T07:06:30.217Z,8.8
2023-05-05T07:11:36.282Z,9
2023-05-05T07:21:48.405Z,9.1
2023-05-05T07:26:54.511Z,9.2
2023-05-05T07:32:00.591Z,9.2
2023-05-05T07:37:06.927Z,9.4
2023-05-05T07:42:12.696Z,9.5
2023-05-05T07:47:20.715Z,9.6
2023-05-05T07:52:44.107Z,9.8
2023-05-05T07:57:36.481Z,9.8
2023-05-05T08:07:52.378Z,10.2
2023-05-05T08:13:00.328Z,10.1
2023-05-05T08:18:08.299Z,10.2
2023-05-05T08:23:16.204Z,10.3
2023-05-05T08:28:24.135Z,10.3
2023-05-05T08:33:32.063Z,10.4
2023-05-05T08:38:40.008Z,10.5
2023-05-05T08:43:47.984Z,10.6
2023-05-05T08:48:55.893Z,10.8
2023-05-05T08:54:03.810Z,10.9
2023-05-05T08:59:11.756Z,11
2023-05-05T09:04:19.757Z,11.1
2023-05-05T09:09:27.653Z,11.2
2023-05-05T09:19:43.493Z,11.5
2023-05-05T09:24:51.428Z,11.6
2023-05-05T09:29:59.429Z,11.7
2023-05-05T09:35:07.490Z,11.9
2023-05-05T09:40:15.272Z,12.1
2023-05-05T09:45:23.192Z,12.2
2023-05-05T09:55:39.082Z,12.4
2023-05-05T10:00:47.005Z,12.6
2023-05-05T10:05:54.998Z,12.8
2023-05-05T10:11:02.864Z,13
2023-05-05T10:21:18.763Z,13.2
2023-05-05T10:26:26.696Z,13.4
2023-05-05T10:31:34.645Z,13.6
2023-05-05T10:36:42.562Z,13.5
2023-05-05T10:41:48.643Z,13.6
2023-05-05T10:46:54.704Z,13.7
2023-05-05T10:52:00.745Z,13.8
2023-05-05T10:57:07.120Z,13.9
2023-05-05T11:02:12.896Z,14
2023-05-05T11:07:19.190Z,14
2023-05-05T11:12:25.032Z,14
2023-05-05T11:17:31.126Z,14.1
2023-05-05T11:22:37.152Z,14.1
2023-05-05T11:27:43.219Z,14.2
2023-05-05T11:32:49.298Z,14
2023-05-05T11:37:55.387Z,14.1
2023-05-05T11:43:01.398Z,14
2023-05-05T11:48:08.106Z,14
2023-05-05T11:53:13.527Z,14
2023-05-05T11:58:19.606Z,13.9
2023-05-05T12:03:25.801Z,14
2023-05-05T12:08:31.702Z,13.9
2023-05-05T12:13:37.770Z,13.9
2023-05-05T12:18:43.855Z,13.9
2023-05-05T12:23:49.887Z,13.9
2023-05-05T12:28:55.966Z,13.7
2023-05-05T12:34:02.021Z,13.7
2023-05-05T12:39:08.110Z,13.7
2023-05-05T12:44:14.174Z,13.6
2023-05-05T12:49:20.209Z,13.4
2023-05-05T12:54:28.174Z,13.4
2023-05-05T12:59:36.094Z,13.2
2023-05-05T13:04:44.226Z,13.2
2023-05-05T13:09:51.972Z,13.2
2023-05-05T13:14:59.881Z,13.1
2023-05-05T13:25:15.775Z,13.2
2023-05-05T13:35:31.623Z,13.2
2023-05-05T13:40:39.618Z,13.2
2023-05-05T13:45:47.591Z,13.2
2023-05-05T13:50:55.460Z,13.3
2023-05-05T13:56:03.399Z,13.3
2023-05-05T14:01:11.373Z,13.3
2023-05-05T14:11:27.257Z,13.4
2023-05-05T14:21:43.109Z,13.4
2023-05-05T14:26:51.006Z,13.5
2023-05-05T14:31:59.024Z,13.5
2023-05-05T14:37:06.916Z,13.4
2023-05-05T14:42:14.836Z,13.4
2023-05-05T14:47:22.786Z,13.3
2023-05-05T14:52:30.709Z,13.3
2023-05-05T14:57:38.665Z,13.2
2023-05-05T15:02:46.669Z,13.1
2023-05-05T15:07:54.522Z,13.1
2023-05-05T15:13:02.517Z,13.1
2023-05-05T15:18:10.390Z,13.1
2023-05-05T15:23:18.326Z,13.1
2023-05-05T15:28:26.257Z,12.9
2023-05-05T15:33:34.207Z,12.8
2023-05-05T15:38:42.160Z,12.8
2023-05-05T15:43:50.098Z,12.8
2023-05-05T15:48:58.014Z,13
2023-05-05T15:54:05.974Z,13
2023-05-05T16:09:29.780Z,13.1
2023-05-05T16:14:37.735Z,13.9
2023-05-05T16:19:45.652Z,14.3
2023-05-05T16:24:53.588Z,14.3
2023-05-05T16:30:01.519Z,14.3
2023-05-05T16:35:09.586Z,14.2
2023-05-05T16:40:17.376Z,14
2023-05-05T16:45:25.353Z,13.9
2023-05-05T16:50:33.532Z,13.8
2023-05-05T16:55:41.177Z,13.6
2023-05-05T17:00:49.150Z,13.5
2023-05-05T17:05:57.205Z,13.5
2023-05-05T17:11:05.005Z,13.4
2023-05-05T17:21:20.866Z,13.2
2023-05-05T17:26:28.809Z,13.2
2023-05-05T17:31:36.806Z,13.2
2023-05-05T17:36:44.711Z,13.2
2023-05-05T17:41:52.622Z,13.1
2023-05-05T17:47:00.594Z,13.1
2023-05-05T17:52:08.499Z,13
2023-05-05T17:57:16.453Z,12.9
2023-05-05T18:02:24.461Z,12.9
2023-05-05T18:07:32.329Z,12.8
2023-05-05T18:12:40.294Z,12.7
2023-05-05T18:17:48.201Z,12.7
2023-05-05T18:22:54.258Z,12.6
2023-05-05T18:28:02.207Z,12.6
2023-05-05T18:33:08.291Z,12.5
2023-05-05T18:38:14.326Z,12.4
2023-05-05T18:43:20.372Z,12.4
2023-05-05T18:48:26.445Z,12.3
2023-05-05T18:53:32.525Z,12.3
2023-05-05T18:58:38.589Z,12.1
2023-05-05T19:03:44.691Z,12
2023-05-05T19:08:52.588Z,12
2023-05-05T19:13:58.653Z,11.9
2023-05-05T19:19:04.690Z,11.9
2023-05-05T19:24:10.812Z,11.8
2023-05-05T19:29:16.805Z,11.7
2023-05-05T19:34:22.885Z,11.7
2023-05-05T19:39:28.965Z,11.6
2023-05-05T19:44:35.056Z,11.6
2023-05-05T19:49:41.094Z,11.5
2023-05-05T19:54:47.195Z,11.5
2023-05-05T19:59:53.241Z,11.4
2023-05-05T20:04:59.284Z,11.4
2023-05-05T20:10:05.353Z,11.3
2023-05-05T20:15:11.426Z,11.2
2023-05-05T20:20:17.705Z,11.2
2023-05-05T20:25:23.566Z,11.1
2023-05-05T20:30:31.461Z,11.1
2023-05-05T20:35:39.402Z,11
2023-05-05T20:40:47.339Z,11
2023-05-05T20:45:55.314Z,10.8
2023-05-05T20:51:03.260Z,10.8
2023-05-05T20:56:11.166Z,10.7
2023-05-05T21:01:19.135Z,10.6
2023-05-05T21:06:27.057Z,10.6
2023-05-05T21:11:34.999Z,10.5
2023-05-05T21:16:43.001Z,10.5
2023-05-05T21:21:50.842Z,10.5
2023-05-05T21:26:58.824Z,10.4
2023-05-05T21:32:04.961Z,10.2
2023-05-05T21:37:10.925Z,10.1
2023-05-05T21:42:16.993Z,10.1
2023-05-05T21:47:23.079Z,10.1
2023-05-05T21:52:29.136Z,10
2023-05-05T21:57:35.212Z,9.9
2023-05-05T22:02:41.341Z,9.9
2023-05-05T22:07:47.343Z,9.8
2023-05-05T22:12:53.464Z,9.8
2023-05-05T22:17:59.482Z,9.7
2023-05-05T22:23:05.523Z,9.6
2023-05-05T22:28:11.596Z,9.6
2023-05-05T22:33:17.911Z,9.5
2023-05-05T22:38:23.713Z,9.5
2023-05-05T22:43:29.789Z,9.4
2023-05-05T22:48:35.840Z,9.4
2023-05-05T22:53:41.991Z,9.3
2023-05-05T22:58:47.972Z,9.3
2023-05-05T23:03:54.077Z,9.2
2023-05-05T23:09:00.126Z,9.2
2023-05-05T23:14:06.160Z,9.2
2023-05-05T23:19:12.220Z,9.1
2023-05-05T23:24:18.310Z,9.1
2023-05-05T23:29:24.364Z,9
2023-05-05T23:34:30.420Z,9
2023-05-05T23:39:36.523Z,9
2023-05-05T23:44:42.587Z,8.9
2023-05-05T23:49:48.653Z,8.9
2023-05-05T23:54:54.709Z,8.9
